Cosco Nagoya — 3ESJ8 — position and weather

sailwx.info

Track history (hours):
 
Tides and Currents Weather Stations Pressure Air Temp Water Temp Dewpoint Dewpoint Depression Visibility Wind Speed Wind Dir Waves Ship Positions

Cosco Nagoya

Last reported at 2017-Mar-20 19:05 UTC. Time now 2017-Mar-25 13:36 UTC.
Position S 34°48' E 018°41'.

Length 260 m; draft 12.5 m.

Type: Cargo ship. MMSI: 370320000.

Date/timePositionNaut miles runAvg speedWind from/ knotsBaromVisibWave heightAir tempDewpointWater temp
2017-Mar-20 19:05S 34°48' E 018°41'815.2
2017-Mar-20 18:32S 34°51' E 018°50'73514.7
2017-Mar-18 16:26S 31°41' E 032°60'1714.4
2017-Mar-18 15:13S 31°35' E 033°19'1014.9
2017-Mar-18 14:33S 31°31' E 033°29'1514.8
2017-Mar-18 13:33S 31°25' E 033°45'1615.1
2017-Mar-18 12:29S 31°19' E 034°03'1414.9
2017-Mar-18 11:33S 31°13' E 034°18'1514.7
2017-Mar-18 10:32S 31°07' E 034°33'1414.6
2017-Mar-18 09:33S 31°01' E 034°48'1413.8
2017-Mar-18 08:32S 30°55' E 035°03'1413.4
2017-Mar-18 07:30S 30°49' E 035°18'2512.9
2017-Mar-18 05:33S 30°39' E 035°45'1212.4
2017-Mar-18 04:33S 30°35' E 035°58'1412.8
2017-Mar-18 03:26S 30°29' E 036°14'14714.4
2017-Mar-17 17:12S 29°27' E 038°48'  
Track history (hours):
 
Tides and Currents Weather Stations Pressure Air Temp Water Temp Dewpoint Dewpoint Depression Visibility Wind Speed Wind Dir Waves Ship Positions

Cosco Nagoya

Last reported at 2017-Mar-20 19:05 UTC. Time now 2017-Mar-25 13:36 UTC.
Position S 34°48' E 018°41'.

Length 260 m; draft 12.5 m.

Type: Cargo ship. MMSI: 370320000.

Date/timePositionNaut miles runAvg speedWind from/ knotsBaromVisibWave heightAir tempDewpointWater temp
2017-Mar-20 19:05S 34°48' E 018°41'815.2
2017-Mar-20 18:32S 34°51' E 018°50'73514.7
2017-Mar-18 16:26S 31°41' E 032°60'1714.4
2017-Mar-18 15:13S 31°35' E 033°19'1014.9
2017-Mar-18 14:33S 31°31' E 033°29'1514.8
2017-Mar-18 13:33S 31°25' E 033°45'1615.1
2017-Mar-18 12:29S 31°19' E 034°03'1414.9
2017-Mar-18 11:33S 31°13' E 034°18'1514.7
2017-Mar-18 10:32S 31°07' E 034°33'1414.6
2017-Mar-18 09:33S 31°01' E 034°48'1413.8
2017-Mar-18 08:32S 30°55' E 035°03'1413.4
2017-Mar-18 07:30S 30°49' E 035°18'2512.9
2017-Mar-18 05:33S 30°39' E 035°45'1212.4
2017-Mar-18 04:33S 30°35' E 035°58'1412.8
2017-Mar-18 03:26S 30°29' E 036°14'14714.4
2017-Mar-17 17:12S 29°27' E 038°48'  

Dump ship's entire track history